Nashville, Tennessee
Traffic Map
Current Weather Conditions
Nashville, Tennessee
Overcast
Overcast
46°
Feels Like: 41°
Wind Chill: 41° Ceiling: 700
Heat Index: 46° Visibility: 10mi
Dew Point: 42° Wind: 9mph
Humidity: 86% Direction: 60° (ENE)
Pressure: 29.98in Gusts: 0mph
Raw Report DataKBNA 051853Z 06008KT 10SM OVC007 08/06 A2998 RMK AO2 SLP152 T00780056
Traffic Incident Summary
Active as of:
Severity:
Category:
InformationThere was an issue retrieving the traffic information for this location. Please try a different location or try again shortly.
Advertisements
Track Severe Weather on mobile